sensor_id;sensor_type;location;lat;lon;timestamp;P1;durP1;ratioP1;P2;durP2;ratioP2
30243;SDS011;64022;53.652;9.792;2023-03-01T00:02:12;28.33;;;20.27;;
30243;SDS011;64022;53.652;9.792;2023-03-01T00:04:38;26.60;;;20.00;;
30243;SDS011;64022;53.652;9.792;2023-03-01T00:07:03;25.83;;;19.23;;
30243;SDS011;64022;53.652;9.792;2023-03-01T00:09:29;27.93;;;19.83;;
30243;SDS011;64022;53.652;9.792;2023-03-01T00:11:55;26.13;;;18.43;;
30243;SDS011;64022;53.652;9.792;2023-03-01T00:14:20;26.73;;;20.00;;
30243;SDS011;64022;53.652;9.792;2023-03-01T00:16:46;26.77;;;19.70;;
30243;SDS011;64022;53.652;9.792;2023-03-01T00:19:16;27.63;;;19.80;;
30243;SDS011;64022;53.652;9.792;2023-03-01T00:21:43;27.33;;;19.80;;
30243;SDS011;64022;53.652;9.792;2023-03-01T00:24:08;26.87;;;19.33;;
30243;SDS011;64022;53.652;9.792;2023-03-01T00:26:34;26.07;;;18.53;;
30243;SDS011;64022;53.652;9.792;2023-03-01T00:29:00;27.80;;;20.13;;
30243;SDS011;64022;53.652;9.792;2023-03-01T00:31:27;26.90;;;19.40;;
30243;SDS011;64022;53.652;9.792;2023-03-01T00:33:54;26.33;;;20.02;;
30243;SDS011;64022;53.652;9.792;2023-03-01T00:36:25;27.38;;;18.65;;
30243;SDS011;64022;53.652;9.792;2023-03-01T00:38:52;27.10;;;18.27;;
30243;SDS011;64022;53.652;9.792;2023-03-01T00:41:18;25.87;;;18.60;;
30243;SDS011;64022;53.652;9.792;2023-03-01T00:43:45;25.65;;;18.17;;
30243;SDS011;64022;53.652;9.792;2023-03-01T00:46:12;24.93;;;18.43;;
30243;SDS011;64022;53.652;9.792;2023-03-01T00:48:39;24.77;;;17.98;;
30243;SDS011;64022;53.652;9.792;2023-03-01T00:51:08;23.47;;;17.53;;
30243;SDS011;64022;53.652;9.792;2023-03-01T00:53:36;25.27;;;18.98;;
30243;SDS011;64022;53.652;9.792;2023-03-01T00:56:02;23.03;;;17.93;;
30243;SDS011;64022;53.652;9.792;2023-03-01T00:58:29;24.92;;;18.70;;
30243;SDS011;64022;53.652;9.792;2023-03-01T01:00:54;25.00;;;18.40;;
30243;SDS011;64022;53.652;9.792;2023-03-01T01:03:20;26.10;;;18.53;;
30243;SDS011;64022;53.652;9.792;2023-03-01T01:05:46;25.67;;;17.90;;
30243;SDS011;64022;53.652;9.792;2023-03-01T01:08:12;27.53;;;18.67;;
30243;SDS011;64022;53.652;9.792;2023-03-01T01:10:38;26.33;;;18.70;;
30243;SDS011;64022;53.652;9.792;2023-03-01T01:13:03;26.83;;;18.10;;
30243;SDS011;64022;53.652;9.792;2023-03-01T01:15:32;25.30;;;18.60;;
30243;SDS011;64022;53.652;9.792;2023-03-01T01:17:58;26.52;;;18.20;;
30243;SDS011;64022;53.652;9.792;2023-03-01T01:20:24;25.87;;;18.40;;
30243;SDS011;64022;53.652;9.792;2023-03-01T01:22:49;22.63;;;17.43;;
30243;SDS011;64022;53.652;9.792;2023-03-01T01:25:16;24.27;;;17.55;;
30243;SDS011;64022;53.652;9.792;2023-03-01T01:27:41;24.40;;;17.30;;
30243;SDS011;64022;53.652;9.792;2023-03-01T01:30:07;25.67;;;17.17;;
30243;SDS011;64022;53.652;9.792;2023-03-01T01:32:33;24.73;;;17.70;;
30243;SDS011;64022;53.652;9.792;2023-03-01T01:34:58;24.73;;;17.23;;
30243;SDS011;64022;53.652;9.792;2023-03-01T01:37:24;23.90;;;16.97;;
30243;SDS011;64022;53.652;9.792;2023-03-01T01:39:56;24.38;;;16.75;;
30243;SDS011;64022;53.652;9.792;2023-03-01T01:42:25;25.23;;;17.15;;
30243;SDS011;64022;53.652;9.792;2023-03-01T01:47:53;23.15;;;16.55;;
30243;SDS011;64022;53.652;9.792;2023-03-01T01:50:22;24.15;;;17.13;;
30243;SDS011;64022;53.652;9.792;2023-03-01T01:52:48;25.95;;;17.23;;
30243;SDS011;64022;53.652;9.792;2023-03-01T01:55:23;22.02;;;15.82;;
30243;SDS011;64022;53.652;9.792;2023-03-01T01:57:53;22.45;;;16.33;;
30243;SDS011;64022;53.652;9.792;2023-03-01T02:00:22;23.90;;;16.67;;
30243;SDS011;64022;53.652;9.792;2023-03-01T02:02:53;23.60;;;17.10;;
30243;SDS011;64022;53.652;9.792;2023-03-01T02:05:45;23.30;;;15.75;;
30243;SDS011;64022;53.652;9.792;2023-03-01T02:08:17;23.02;;;16.25;;
30243;SDS011;64022;53.652;9.792;2023-03-01T02:10:45;20.40;;;15.25;;
30243;SDS011;64022;53.652;9.792;2023-03-01T02:13:12;23.45;;;15.82;;
30243;SDS011;64022;53.652;9.792;2023-03-01T02:15:39;22.87;;;16.77;;
30243;SDS011;64022;53.652;9.792;2023-03-01T02:18:06;22.75;;;16.25;;
30243;SDS011;64022;53.652;9.792;2023-03-01T02:23:25;20.35;;;15.10;;
30243;SDS011;64022;53.652;9.792;2023-03-01T02:25:53;19.80;;;14.75;;
30243;SDS011;64022;53.652;9.792;2023-03-01T02:28:28;20.77;;;15.45;;
30243;SDS011;64022;53.652;9.792;2023-03-01T02:30:58;21.92;;;15.98;;
30243;SDS011;64022;53.652;9.792;2023-03-01T02:33:43;23.23;;;15.82;;
30243;SDS011;64022;53.652;9.792;2023-03-01T02:36:11;21.42;;;15.32;;
30243;SDS011;64022;53.652;9.792;2023-03-01T02:38:41;22.65;;;16.05;;
30243;SDS011;64022;53.652;9.792;2023-03-01T02:41:07;19.33;;;14.85;;
30243;SDS011;64022;53.652;9.792;2023-03-01T02:43:35;21.52;;;14.55;;
30243;SDS011;64022;53.652;9.792;2023-03-01T02:46:06;20.73;;;15.33;;
30243;SDS011;64022;53.652;9.792;2023-03-01T02:48:44;20.42;;;15.18;;
30243;SDS011;64022;53.652;9.792;2023-03-01T02:54:16;20.42;;;15.20;;
30243;SDS011;64022;53.652;9.792;2023-03-01T02:56:50;18.85;;;13.98;;
30243;SDS011;64022;53.652;9.792;2023-03-01T02:59:17;20.48;;;14.68;;
30243;SDS011;64022;53.652;9.792;2023-03-01T03:01:45;19.63;;;14.32;;
30243;SDS011;64022;53.652;9.792;2023-03-01T03:04:13;20.90;;;14.45;;
30243;SDS011;64022;53.652;9.792;2023-03-01T03:06:45;20.30;;;14.80;;
30243;SDS011;64022;53.652;9.792;2023-03-01T03:09:12;21.77;;;14.15;;
30243;SDS011;64022;53.652;9.792;2023-03-01T03:11:39;20.17;;;15.23;;
30243;SDS011;64022;53.652;9.792;2023-03-01T03:14:05;18.65;;;13.70;;
30243;SDS011;64022;53.652;9.792;2023-03-01T03:16:37;19.90;;;14.02;;
30243;SDS011;64022;53.652;9.792;2023-03-01T03:19:15;18.42;;;14.07;;
30243;SDS011;64022;53.652;9.792;2023-03-01T03:21:42;19.67;;;14.43;;
30243;SDS011;64022;53.652;9.792;2023-03-01T03:24:08;18.80;;;13.97;;
30243;SDS011;64022;53.652;9.792;2023-03-01T03:26:33;19.60;;;14.23;;
30243;SDS011;64022;53.652;9.792;2023-03-01T03:28:59;19.60;;;13.47;;
30243;SDS011;64022;53.652;9.792;2023-03-01T03:31:24;18.67;;;13.77;;
30243;SDS011;64022;53.652;9.792;2023-03-01T03:33:50;19.23;;;14.40;;
30243;SDS011;64022;53.652;9.792;2023-03-01T03:36:16;19.53;;;13.87;;
30243;SDS011;64022;53.652;9.792;2023-03-01T03:38:45;17.65;;;13.45;;
30243;SDS011;64022;53.652;9.792;2023-03-01T03:41:12;18.37;;;13.10;;
30243;SDS011;64022;53.652;9.792;2023-03-01T03:43:38;19.13;;;13.02;;
30243;SDS011;64022;53.652;9.792;2023-03-01T03:46:05;16.08;;;11.95;;
30243;SDS011;64022;53.652;9.792;2023-03-01T03:48:33;17.23;;;12.25;;
30243;SDS011;64022;53.652;9.792;2023-03-01T03:50:59;15.07;;;11.38;;
30243;SDS011;64022;53.652;9.792;2023-03-01T03:53:25;16.67;;;12.00;;
30243;SDS011;64022;53.652;9.792;2023-03-01T03:58:18;15.20;;;11.55;;
30243;SDS011;64022;53.652;9.792;2023-03-01T04:00:46;16.75;;;12.02;;
30243;SDS011;64022;53.652;9.792;2023-03-01T04:03:14;18.75;;;12.48;;
30243;SDS011;64022;53.652;9.792;2023-03-01T04:05:40;16.70;;;11.85;;
30243;SDS011;64022;53.652;9.792;2023-03-01T04:08:06;16.73;;;11.10;;
30243;SDS011;64022;53.652;9.792;2023-03-01T04:10:34;14.10;;;10.77;;
30243;SDS011;64022;53.652;9.792;2023-03-01T04:13:00;15.20;;;11.48;;
30243;SDS011;64022;53.652;9.792;2023-03-01T04:15:26;15.13;;;11.23;;
30243;SDS011;64022;53.652;9.792;2023-03-01T04:17:52;13.82;;;11.05;;
30243;SDS011;64022;53.652;9.792;2023-03-01T04:20:19;13.98;;;10.48;;
30243;SDS011;64022;53.652;9.792;2023-03-01T04:22:50;15.88;;;11.15;;
30243;SDS011;64022;53.652;9.792;2023-03-01T04:25:17;16.98;;;11.27;;
30243;SDS011;64022;53.652;9.792;2023-03-01T04:27:43;14.23;;;10.73;;
30243;SDS011;64022;53.652;9.792;2023-03-01T04:30:08;17.97;;;11.10;;
30243;SDS011;64022;53.652;9.792;2023-03-01T04:32:34;16.10;;;11.63;;
30243;SDS011;64022;53.652;9.792;2023-03-01T04:35:00;13.53;;;10.73;;
30243;SDS011;64022;53.652;9.792;2023-03-01T04:37:26;15.80;;;11.17;;
30243;SDS011;64022;53.652;9.792;2023-03-01T04:39:52;15.40;;;11.33;;
30243;SDS011;64022;53.652;9.792;2023-03-01T04:42:17;18.97;;;10.10;;
30243;SDS011;64022;53.652;9.792;2023-03-01T04:44:43;14.73;;;11.07;;
30243;SDS011;64022;53.652;9.792;2023-03-01T04:47:09;14.83;;;10.23;;
30243;SDS011;64022;53.652;9.792;2023-03-01T04:49:35;16.70;;;10.80;;
30243;SDS011;64022;53.652;9.792;2023-03-01T04:52:00;15.17;;;10.30;;
30243;SDS011;64022;53.652;9.792;2023-03-01T04:54:30;14.18;;;10.02;;
30243;SDS011;64022;53.652;9.792;2023-03-01T04:56:56;16.67;;;10.38;;
30243;SDS011;64022;53.652;9.792;2023-03-01T04:59:22;14.33;;;10.23;;
30243;SDS011;64022;53.652;9.792;2023-03-01T05:01:48;12.20;;;9.60;;
30243;SDS011;64022;53.652;9.792;2023-03-01T05:04:14;13.63;;;10.05;;
30243;SDS011;64022;53.652;9.792;2023-03-01T05:06:40;15.60;;;10.47;;
30243;SDS011;64022;53.652;9.792;2023-03-01T05:09:06;16.53;;;10.43;;
30243;SDS011;64022;53.652;9.792;2023-03-01T05:11:31;13.60;;;9.83;;
30243;SDS011;64022;53.652;9.792;2023-03-01T05:14:01;13.95;;;10.15;;
30243;SDS011;64022;53.652;9.792;2023-03-01T05:16:27;13.55;;;9.88;;
30243;SDS011;64022;53.652;9.792;2023-03-01T05:18:53;13.63;;;9.43;;
30243;SDS011;64022;53.652;9.792;2023-03-01T05:21:20;12.15;;;8.95;;
30243;SDS011;64022;53.652;9.792;2023-03-01T05:23:46;15.03;;;9.43;;
30243;SDS011;64022;53.652;9.792;2023-03-01T05:26:11;13.67;;;10.10;;
30243;SDS011;64022;53.652;9.792;2023-03-01T05:28:37;13.67;;;9.47;;
30243;SDS011;64022;53.652;9.792;2023-03-01T05:31:03;14.13;;;9.53;;
30243;SDS011;64022;53.652;9.792;2023-03-01T05:33:34;13.70;;;9.27;;
30243;SDS011;64022;53.652;9.792;2023-03-01T05:36:05;12.15;;;8.88;;
30243;SDS011;64022;53.652;9.792;2023-03-01T05:38:34;12.40;;;9.93;;
30243;SDS011;64022;53.652;9.792;2023-03-01T05:41:00;14.50;;;9.55;;
30243;SDS011;64022;53.652;9.792;2023-03-01T05:43:29;11.53;;;9.03;;
30243;SDS011;64022;53.652;9.792;2023-03-01T05:45:57;12.30;;;9.55;;
30243;SDS011;64022;53.652;9.792;2023-03-01T05:48:23;14.20;;;9.82;;
30243;SDS011;64022;53.652;9.792;2023-03-01T05:50:48;13.47;;;9.80;;
30243;SDS011;64022;53.652;9.792;2023-03-01T05:53:15;10.33;;;8.33;;
30243;SDS011;64022;53.652;9.792;2023-03-01T05:55:42;13.00;;;9.45;;
30243;SDS011;64022;53.652;9.792;2023-03-01T05:58:12;13.23;;;9.65;;
30243;SDS011;64022;53.652;9.792;2023-03-01T06:00:39;13.35;;;9.10;;
30243;SDS011;64022;53.652;9.792;2023-03-01T06:03:05;13.43;;;9.57;;
30243;SDS011;64022;53.652;9.792;2023-03-01T06:05:31;14.37;;;9.63;;
30243;SDS011;64022;53.652;9.792;2023-03-01T06:08:00;13.87;;;9.77;;
30243;SDS011;64022;53.652;9.792;2023-03-01T06:10:28;13.05;;;8.77;;
30243;SDS011;64022;53.652;9.792;2023-03-01T06:12:54;11.68;;;8.93;;
30243;SDS011;64022;53.652;9.792;2023-03-01T06:15:20;12.93;;;9.53;;
30243;SDS011;64022;53.652;9.792;2023-03-01T06:17:46;13.18;;;9.27;;
30243;SDS011;64022;53.652;9.792;2023-03-01T06:22:43;11.95;;;8.40;;
30243;SDS011;64022;53.652;9.792;2023-03-01T06:25:09;12.30;;;8.63;;
30243;SDS011;64022;53.652;9.792;2023-03-01T06:27:37;13.00;;;8.73;;
30243;SDS011;64022;53.652;9.792;2023-03-01T06:30:03;11.97;;;8.17;;
30243;SDS011;64022;53.652;9.792;2023-03-01T06:32:29;12.52;;;8.73;;
30243;SDS011;64022;53.652;9.792;2023-03-01T06:34:55;14.52;;;9.23;;
30243;SDS011;64022;53.652;9.792;2023-03-01T06:37:22;11.25;;;8.60;;
30243;SDS011;64022;53.652;9.792;2023-03-01T06:39:48;12.07;;;8.50;;
30243;SDS011;64022;53.652;9.792;2023-03-01T06:42:14;12.13;;;8.80;;
30243;SDS011;64022;53.652;9.792;2023-03-01T06:44:39;12.83;;;8.63;;
30243;SDS011;64022;53.652;9.792;2023-03-01T06:47:05;12.27;;;8.67;;
30243;SDS011;64022;53.652;9.792;2023-03-01T06:49:30;11.70;;;8.63;;
30243;SDS011;64022;53.652;9.792;2023-03-01T06:51:56;12.30;;;8.43;;
30243;SDS011;64022;53.652;9.792;2023-03-01T06:54:22;11.82;;;8.63;;
30243;SDS011;64022;53.652;9.792;2023-03-01T06:56:48;9.87;;;7.30;;
30243;SDS011;64022;53.652;9.792;2023-03-01T06:59:14;11.73;;;7.82;;
30243;SDS011;64022;53.652;9.792;2023-03-01T07:01:40;11.02;;;8.20;;
30243;SDS011;64022;53.652;9.792;2023-03-01T07:04:06;10.80;;;7.87;;
30243;SDS011;64022;53.652;9.792;2023-03-01T07:06:32;11.57;;;8.00;;
30243;SDS011;64022;53.652;9.792;2023-03-01T07:08:57;11.90;;;8.60;;
30243;SDS011;64022;53.652;9.792;2023-03-01T07:11:23;11.10;;;8.00;;
30243;SDS011;64022;53.652;9.792;2023-03-01T07:13:48;10.13;;;7.70;;
30243;SDS011;64022;53.652;9.792;2023-03-01T07:16:14;11.03;;;7.70;;
30243;SDS011;64022;53.652;9.792;2023-03-01T07:18:40;9.90;;;7.40;;
30243;SDS011;64022;53.652;9.792;2023-03-01T07:21:07;9.10;;;7.10;;
30243;SDS011;64022;53.652;9.792;2023-03-01T07:23:33;11.55;;;7.50;;
30243;SDS011;64022;53.652;9.792;2023-03-01T07:25:59;10.13;;;7.73;;
30243;SDS011;64022;53.652;9.792;2023-03-01T07:28:25;10.00;;;7.40;;
30243;SDS011;64022;53.652;9.792;2023-03-01T07:30:51;11.00;;;8.30;;
30243;SDS011;64022;53.652;9.792;2023-03-01T07:33:17;10.80;;;7.27;;
30243;SDS011;64022;53.652;9.792;2023-03-01T07:35:42;9.43;;;7.20;;
30243;SDS011;64022;53.652;9.792;2023-03-01T07:38:08;10.30;;;8.13;;
30243;SDS011;64022;53.652;9.792;2023-03-01T07:40:33;11.27;;;7.10;;
30243;SDS011;64022;53.652;9.792;2023-03-01T07:43:00;9.82;;;8.13;;
30243;SDS011;64022;53.652;9.792;2023-03-01T07:45:26;10.63;;;7.60;;
30243;SDS011;64022;53.652;9.792;2023-03-01T07:47:52;10.48;;;7.28;;
30243;SDS011;64022;53.652;9.792;2023-03-01T07:50:19;9.40;;;7.03;;
30243;SDS011;64022;53.652;9.792;2023-03-01T07:52:45;9.20;;;7.07;;
30243;SDS011;64022;53.652;9.792;2023-03-01T07:55:11;9.60;;;7.30;;
30243;SDS011;64022;53.652;9.792;2023-03-01T07:57:37;9.50;;;7.30;;
30243;SDS011;64022;53.652;9.792;2023-03-01T08:00:03;9.43;;;7.47;;
30243;SDS011;64022;53.652;9.792;2023-03-01T08:02:33;10.07;;;7.22;;
30243;SDS011;64022;53.652;9.792;2023-03-01T08:04:58;10.03;;;7.40;;
30243;SDS011;64022;53.652;9.792;2023-03-01T08:07:24;9.23;;;7.43;;
30243;SDS011;64022;53.652;9.792;2023-03-01T08:09:49;9.73;;;7.43;;
30243;SDS011;64022;53.652;9.792;2023-03-01T08:12:15;10.57;;;6.90;;
30243;SDS011;64022;53.652;9.792;2023-03-01T08:14:43;10.75;;;7.10;;
30243;SDS011;64022;53.652;9.792;2023-03-01T08:17:09;10.27;;;7.37;;
30243;SDS011;64022;53.652;9.792;2023-03-01T08:19:34;8.67;;;6.53;;
30243;SDS011;64022;53.652;9.792;2023-03-01T08:22:03;8.17;;;6.53;;
30243;SDS011;64022;53.652;9.792;2023-03-01T08:24:28;9.45;;;7.20;;
30243;SDS011;64022;53.652;9.792;2023-03-01T08:26:54;10.10;;;7.13;;
30243;SDS011;64022;53.652;9.792;2023-03-01T08:29:20;8.20;;;6.60;;
30243;SDS011;64022;53.652;9.792;2023-03-01T08:31:46;9.97;;;6.83;;
30243;SDS011;64022;53.652;9.792;2023-03-01T08:34:12;9.07;;;6.90;;
30243;SDS011;64022;53.652;9.792;2023-03-01T08:36:41;8.95;;;6.75;;
30243;SDS011;64022;53.652;9.792;2023-03-01T08:39:09;8.68;;;6.38;;
30243;SDS011;64022;53.652;9.792;2023-03-01T08:41:36;9.88;;;7.45;;
30243;SDS011;64022;53.652;9.792;2023-03-01T08:44:03;8.82;;;6.68;;
30243;SDS011;64022;53.652;9.792;2023-03-01T08:46:30;7.97;;;6.43;;
30243;SDS011;64022;53.652;9.792;2023-03-01T08:48:57;9.80;;;6.85;;
30243;SDS011;64022;53.652;9.792;2023-03-01T08:51:23;9.67;;;7.33;;
30243;SDS011;64022;53.652;9.792;2023-03-01T08:53:50;9.07;;;6.97;;
30243;SDS011;64022;53.652;9.792;2023-03-01T08:56:16;9.53;;;6.70;;
30243;SDS011;64022;53.652;9.792;2023-03-01T08:58:44;10.40;;;7.18;;
30243;SDS011;64022;53.652;9.792;2023-03-01T09:01:14;8.50;;;6.68;;
30243;SDS011;64022;53.652;9.792;2023-03-01T09:03:41;9.25;;;6.45;;
30243;SDS011;64022;53.652;9.792;2023-03-01T09:06:07;9.57;;;6.80;;
30243;SDS011;64022;53.652;9.792;2023-03-01T09:08:37;7.55;;;5.75;;
30243;SDS011;64022;53.652;9.792;2023-03-01T09:11:04;8.63;;;6.07;;
30243;SDS011;64022;53.652;9.792;2023-03-01T09:13:31;8.77;;;6.03;;
30243;SDS011;64022;53.652;9.792;2023-03-01T09:15:58;9.00;;;5.90;;
30243;SDS011;64022;53.652;9.792;2023-03-01T09:18:25;8.27;;;6.15;;
30243;SDS011;64022;53.652;9.792;2023-03-01T09:20:51;7.73;;;5.97;;
30243;SDS011;64022;53.652;9.792;2023-03-01T09:23:19;8.60;;;5.85;;
30243;SDS011;64022;53.652;9.792;2023-03-01T09:25:46;9.32;;;6.40;;
30243;SDS011;64022;53.652;9.792;2023-03-01T09:28:11;8.37;;;5.93;;
30243;SDS011;64022;53.652;9.792;2023-03-01T09:30:37;8.27;;;5.73;;
30243;SDS011;64022;53.652;9.792;2023-03-01T09:33:02;8.40;;;5.77;;
30243;SDS011;64022;53.652;9.792;2023-03-01T09:35:28;7.30;;;5.90;;
30243;SDS011;64022;53.652;9.792;2023-03-01T09:37:53;8.03;;;5.30;;
30243;SDS011;64022;53.652;9.792;2023-03-01T09:40:20;7.73;;;5.70;;
30243;SDS011;64022;53.652;9.792;2023-03-01T09:42:52;7.80;;;6.18;;
30243;SDS011;64022;53.652;9.792;2023-03-01T09:45:26;7.30;;;5.97;;
30243;SDS011;64022;53.652;9.792;2023-03-01T09:47:58;8.25;;;6.20;;
30243;SDS011;64022;53.652;9.792;2023-03-01T09:55:37;7.60;;;6.10;;
30243;SDS011;64022;53.652;9.792;2023-03-01T10:04:20;10.10;;;5.90;;
30243;SDS011;64022;53.652;9.792;2023-03-01T10:07:02;9.30;;;6.38;;
30243;SDS011;64022;53.652;9.792;2023-03-01T10:09:40;9.98;;;7.10;;
30243;SDS011;64022;53.652;9.792;2023-03-01T10:12:17;10.63;;;7.40;;
30243;SDS011;64022;53.652;9.792;2023-03-01T10:20:20;9.07;;;6.90;;
30243;SDS011;64022;53.652;9.792;2023-03-01T10:22:47;8.10;;;6.30;;
30243;SDS011;64022;53.652;9.792;2023-03-01T10:25:23;7.32;;;5.82;;
30243;SDS011;64022;53.652;9.792;2023-03-01T10:30:39;10.30;;;7.00;;
30243;SDS011;64022;53.652;9.792;2023-03-01T10:33:13;10.18;;;7.07;;
30243;SDS011;64022;53.652;9.792;2023-03-01T10:38:20;9.23;;;6.55;;
30243;SDS011;64022;53.652;9.792;2023-03-01T10:41:05;8.70;;;6.50;;
30243;SDS011;64022;53.652;9.792;2023-03-01T10:43:53;10.73;;;7.40;;
30243;SDS011;64022;53.652;9.792;2023-03-01T10:46:22;10.68;;;8.02;;
30243;SDS011;64022;53.652;9.792;2023-03-01T10:51:35;10.88;;;7.60;;
30243;SDS011;64022;53.652;9.792;2023-03-01T10:54:00;11.87;;;8.13;;
30243;SDS011;64022;53.652;9.792;2023-03-01T10:56:27;11.07;;;7.95;;
30243;SDS011;64022;53.652;9.792;2023-03-01T10:58:56;9.33;;;7.80;;
30243;SDS011;64022;53.652;9.792;2023-03-01T11:01:25;13.63;;;8.15;;
30243;SDS011;64022;53.652;9.792;2023-03-01T11:04:09;11.80;;;7.93;;
30243;SDS011;64022;53.652;9.792;2023-03-01T11:06:38;10.93;;;7.85;;
30243;SDS011;64022;53.652;9.792;2023-03-01T11:09:15;15.80;;;7.88;;
30243;SDS011;64022;53.652;9.792;2023-03-01T11:11:45;12.00;;;8.55;;
30243;SDS011;64022;53.652;9.792;2023-03-01T11:16:47;12.82;;;8.75;;
30243;SDS011;64022;53.652;9.792;2023-03-01T11:19:22;10.85;;;8.32;;
30243;SDS011;64022;53.652;9.792;2023-03-01T11:22:33;14.73;;;9.73;;
30243;SDS011;64022;53.652;9.792;2023-03-01T11:24:46;14.30;;;9.00;;
30243;SDS011;64022;53.652;9.792;2023-03-01T11:27:19;13.77;;;9.57;;
30243;SDS011;64022;53.652;9.792;2023-03-01T11:29:58;11.15;;;8.55;;
30243;SDS011;64022;53.652;9.792;2023-03-01T11:32:56;13.40;;;9.63;;
30243;SDS011;64022;53.652;9.792;2023-03-01T11:35:37;14.43;;;9.85;;
30243;SDS011;64022;53.652;9.792;2023-03-01T11:38:26;13.73;;;9.13;;
30243;SDS011;64022;53.652;9.792;2023-03-01T11:41:06;13.55;;;8.68;;
30243;SDS011;64022;53.652;9.792;2023-03-01T11:43:54;13.82;;;9.32;;
30243;SDS011;64022;53.652;9.792;2023-03-01T11:54:47;15.70;;;10.27;;
30243;SDS011;64022;53.652;9.792;2023-03-01T12:06:17;13.70;;;10.18;;
30243;SDS011;64022;53.652;9.792;2023-03-01T12:11:53;14.25;;;10.50;;
30243;SDS011;64022;53.652;9.792;2023-03-01T12:20:29;17.83;;;11.77;;
30243;SDS011;64022;53.652;9.792;2023-03-01T12:26:06;14.90;;;11.32;;
30243;SDS011;64022;53.652;9.792;2023-03-01T12:28:50;16.98;;;12.02;;
30243;SDS011;64022;53.652;9.792;2023-03-01T12:34:30;19.50;;;12.38;;
30243;SDS011;64022;53.652;9.792;2023-03-01T12:48:18;21.08;;;14.73;;
30243;SDS011;64022;53.652;9.792;2023-03-01T12:51:14;22.92;;;15.23;;
30243;SDS011;64022;53.652;9.792;2023-03-01T12:53:50;22.02;;;14.32;;
30243;SDS011;64022;53.652;9.792;2023-03-01T12:56:22;20.30;;;14.45;;
30243;SDS011;64022;53.652;9.792;2023-03-01T13:01:45;21.98;;;15.32;;
30243;SDS011;64022;53.652;9.792;2023-03-01T13:04:27;21.17;;;14.48;;
30243;SDS011;64022;53.652;9.792;2023-03-01T13:15:28;21.10;;;15.60;;
30243;SDS011;64022;53.652;9.792;2023-03-01T13:18:00;24.73;;;15.88;;
30243;SDS011;64022;53.652;9.792;2023-03-01T13:20:50;22.17;;;15.63;;
30243;SDS011;64022;53.652;9.792;2023-03-01T13:35:55;22.10;;;15.87;;
30243;SDS011;64022;53.652;9.792;2023-03-01T13:41:11;22.05;;;15.60;;
30243;SDS011;64022;53.652;9.792;2023-03-01T13:46:21;23.60;;;16.50;;
30243;SDS011;64022;53.652;9.792;2023-03-01T13:48:52;21.83;;;15.57;;
30243;SDS011;64022;53.652;9.792;2023-03-01T13:51:23;22.52;;;15.38;;
30243;SDS011;64022;53.652;9.792;2023-03-01T13:53:51;24.33;;;16.67;;
30243;SDS011;64022;53.652;9.792;2023-03-01T13:56:19;24.17;;;16.73;;
30243;SDS011;64022;53.652;9.792;2023-03-01T14:03:54;21.90;;;16.02;;
30243;SDS011;64022;53.652;9.792;2023-03-01T14:06:21;23.00;;;16.77;;
30243;SDS011;64022;53.652;9.792;2023-03-01T14:09:14;24.10;;;16.60;;
30243;SDS011;64022;53.652;9.792;2023-03-01T14:12:04;20.15;;;16.15;;
30243;SDS011;64022;53.652;9.792;2023-03-01T14:20:21;22.73;;;16.20;;
30243;SDS011;64022;53.652;9.792;2023-03-01T14:22:50;21.55;;;16.25;;
30243;SDS011;64022;53.652;9.792;2023-03-01T14:25:26;25.45;;;16.90;;
30243;SDS011;64022;53.652;9.792;2023-03-01T14:27:56;23.48;;;16.27;;
30243;SDS011;64022;53.652;9.792;2023-03-01T14:30:26;20.95;;;15.80;;
30243;SDS011;64022;53.652;9.792;2023-03-01T14:32:57;23.20;;;16.17;;
30243;SDS011;64022;53.652;9.792;2023-03-01T14:35:26;25.25;;;17.17;;
30243;SDS011;64022;53.652;9.792;2023-03-01T14:37:55;22.35;;;16.25;;
30243;SDS011;64022;53.652;9.792;2023-03-01T14:40:25;25.37;;;17.20;;
30243;SDS011;64022;53.652;9.792;2023-03-01T14:42:56;22.10;;;16.50;;
30243;SDS011;64022;53.652;9.792;2023-03-01T14:45:24;25.60;;;16.60;;
30243;SDS011;64022;53.652;9.792;2023-03-01T14:47:51;14.93;;;9.77;;
30243;SDS011;64022;53.652;9.792;2023-03-01T14:50:23;12.80;;;8.18;;
30243;SDS011;64022;53.652;9.792;2023-03-01T14:52:52;19.48;;;13.00;;
30243;SDS011;64022;53.652;9.792;2023-03-01T14:55:25;21.48;;;14.45;;
30243;SDS011;64022;53.652;9.792;2023-03-01T14:57:54;22.48;;;13.13;;
30243;SDS011;64022;53.652;9.792;2023-03-01T15:00:28;19.80;;;12.93;;
30243;SDS011;64022;53.652;9.792;2023-03-01T15:03:07;17.75;;;13.05;;
30243;SDS011;64022;53.652;9.792;2023-03-01T15:05:38;19.50;;;13.25;;
30243;SDS011;64022;53.652;9.792;2023-03-01T15:08:05;19.90;;;13.15;;
30243;SDS011;64022;53.652;9.792;2023-03-01T15:10:35;18.75;;;13.00;;
30243;SDS011;64022;53.652;9.792;2023-03-01T15:15:38;19.42;;;13.85;;
30243;SDS011;64022;53.652;9.792;2023-03-01T15:18:18;18.77;;;13.07;;
30243;SDS011;64022;53.652;9.792;2023-03-01T15:20:50;18.35;;;12.77;;
30243;SDS011;64022;53.652;9.792;2023-03-01T15:23:21;18.90;;;12.90;;
30243;SDS011;64022;53.652;9.792;2023-03-01T15:25:49;17.23;;;12.75;;
30243;SDS011;64022;53.652;9.792;2023-03-01T15:28:21;18.17;;;13.50;;
30243;SDS011;64022;53.652;9.792;2023-03-01T15:31:00;18.45;;;13.13;;
30243;SDS011;64022;53.652;9.792;2023-03-01T15:33:30;18.95;;;13.00;;
30243;SDS011;64022;53.652;9.792;2023-03-01T15:35:59;17.65;;;13.07;;
30243;SDS011;64022;53.652;9.792;2023-03-01T15:40:56;19.77;;;13.80;;
30243;SDS011;64022;53.652;9.792;2023-03-01T15:46:21;18.10;;;12.40;;
30243;SDS011;64022;53.652;9.792;2023-03-01T15:48:58;20.38;;;13.57;;
30243;SDS011;64022;53.652;9.792;2023-03-01T15:51:37;17.92;;;12.75;;
30243;SDS011;64022;53.652;9.792;2023-03-01T15:54:17;19.13;;;13.65;;
30243;SDS011;64022;53.652;9.792;2023-03-01T15:56:44;22.33;;;14.10;;
30243;SDS011;64022;53.652;9.792;2023-03-01T15:59:10;17.43;;;12.37;;
30243;SDS011;64022;53.652;9.792;2023-03-01T16:01:38;20.42;;;13.32;;
30243;SDS011;64022;53.652;9.792;2023-03-01T16:04:11;19.95;;;12.95;;
30243;SDS011;64022;53.652;9.792;2023-03-01T16:06:52;19.02;;;13.27;;
30243;SDS011;64022;53.652;9.792;2023-03-01T16:09:25;19.75;;;13.95;;
30243;SDS011;64022;53.652;9.792;2023-03-01T16:11:51;17.42;;;13.15;;
30243;SDS011;64022;53.652;9.792;2023-03-01T16:14:17;20.00;;;13.75;;
30243;SDS011;64022;53.652;9.792;2023-03-01T16:16:44;21.47;;;14.20;;
30243;SDS011;64022;53.652;9.792;2023-03-01T16:19:10;19.58;;;13.77;;
30243;SDS011;64022;53.652;9.792;2023-03-01T16:21:36;18.80;;;13.65;;
30243;SDS011;64022;53.652;9.792;2023-03-01T16:24:02;19.55;;;14.27;;
30243;SDS011;64022;53.652;9.792;2023-03-01T16:26:28;20.30;;;14.10;;
30243;SDS011;64022;53.652;9.792;2023-03-01T16:28:54;21.27;;;14.40;;
30243;SDS011;64022;53.652;9.792;2023-03-01T16:33:47;17.95;;;13.60;;
30243;SDS011;64022;53.652;9.792;2023-03-01T16:36:15;18.38;;;13.43;;
30243;SDS011;64022;53.652;9.792;2023-03-01T16:38:42;19.60;;;14.05;;
30243;SDS011;64022;53.652;9.792;2023-03-01T16:41:12;21.43;;;14.43;;
30243;SDS011;64022;53.652;9.792;2023-03-01T16:43:39;21.98;;;14.95;;
30243;SDS011;64022;53.652;9.792;2023-03-01T16:46:12;24.90;;;15.70;;
30243;SDS011;64022;53.652;9.792;2023-03-01T16:48:39;20.00;;;14.48;;
30243;SDS011;64022;53.652;9.792;2023-03-01T16:51:05;22.00;;;16.13;;
30243;SDS011;64022;53.652;9.792;2023-03-01T16:53:35;21.15;;;15.20;;
30243;SDS011;64022;53.652;9.792;2023-03-01T16:56:02;24.85;;;14.95;;